Fort Myers, FL

8:41 PM EDT on August 28, 2016 (GMT -0400)
Southwest Florida International | | Change Station

Elev 30 ft 26.54 °N, 81.76 °W | Updated 48 minutes ago

Clear
Clear
83 °F
Feels Like 89 °F
N
6
Wind Variable Wind from ENE

Today
High -- | Low -- °F
--% Chance of Precip.
Yesterday
High -- | Low -- °F
Precip. -- in
Pressure 29.88 in
Visibility 10.0 miles
Clouds Clear
Heat Index 89 °F
Dew Point 73 °F
Humidity 72%
Rainfall 0.00 in
Snow Depth Not available.
7:05 AM 7:50 PM
Waning Crescent, 12% visible
METAR KRSW 282353Z 07005KT 10SM CLR 28/23 A2989 RMK AO2 SLP118 60000 T02830228 10339 20283 53003
Pressure 29.88 in
Visibility 10.0 miles
Clouds Clear
Heat Index 89 °F
Dew Point 73 °F
Humidity 72%
Rainfall 0.00 in
Snow Depth Not available.
7:05 AM 7:50 PM
Waning Crescent, 12% visible
METAR KRSW 282353Z 07005KT 10SM CLR 28/23 A2989 RMK AO2 SLP118 60000 T02830228 10339 20283 53003

10-Day Weather Forecast

Almanac

Astronomy

Aug. 28, 2016 Rise Set
Actual Time
Civil Twilight
Nautical Twilight
Astronomical Twilight
Moon
Length of Visible Light
Length of Day
Tomorrow will be .
, % of the Moon is Illuminated

Today's Extremes

State Highs State Lows

Community

WunderPhotos

Upload Photos

1,935,749 photos uploaded!

WunderBlog® & News

Nearby

Air Quality

  Air Quality AQ Index Pollutant
Not available.

Snow Depth

Station Depth Elevation

Earthquake Activity

City Distance Mag. Time & Date
Minimum magnitude displayed is 2.5.

Coastal Water Temperatures

Place Temperature

Stations

Nearby Weather Stations

Station Location Temp. Windchill Dew Point Humidity Wind Precip. Elev Updated Type
                   

Watches & Warnings

There are currently no watches in effect.